Portada
METAR-TAF:

METAR-TAF

Aeropuertos :

Tuzla, Bosnia y Herzegovina

latitud: 44-33N, longitud: 018-42E, altitud: 306 m

Observación

El informe se hizo hace 1 hora y 11 minutos, a las 11:00 UTC
Viento 6 kt del norte, variando entre oeste-noroeste y noreste
Temperatura 14°C
Humedad 36%
Presión 1019 hPa
Visibilidad 10 km o más
Escasas nubes a una altura de 4000 ft

METAR: LQTZ 041100Z 35006KT 290V050 9999 FEW040 14/M01 Q1019

Hora: 14:11 (12:11 UTC)

Pronóstico

El informe se hizo hace 1 hora y 11 minutos, a las 11:00 UTC
Pronóstico válido del 04 a las 12 UTC al 05 a las 12 UTC
Viento 6 kt del norte-noreste
Visibilidad 10 km o más
Escasas nubes a una altura de 5000 ft
Probabilidad 40% :
Temporalmente
del 05 a las 10 UTC al 05 a las 12 UTC
Viento 12 kt del este

TAF: LQTZ 041100Z 0412/0512 03006KT 9999 FEW050 TX17/0414Z TN00/0504Z PROB40 TEMPO 0510/0512 09012KT

Observaciones y pronósticos meteorológicos de más de 4000 aeropuertos (mensajes METAR y TAF).

Los puntos amarillos y rojos representan las estaciones disponibles.

Ponga el ratón en el punto deseado para ver el nombre de la estación.

Haga clic para ver las observaciones y los pronósticos meteorológicos.

Para cambiar el mapa : haga clic en los botones verdes con una cruz de color negro para hacer un zoom, en el botón verde con un guión para alejar o en las flechas verdes para mapas adyacentes.


METAR-TAF: